createdAt,value
2022-09-13T00:00:04.645Z,27.35
2022-09-13T00:03:08.505Z,27.44
2022-09-13T00:06:16.901Z,27.22
2022-09-13T00:09:20.112Z,26.94
2022-09-13T00:12:23.241Z,26.61
2022-09-13T00:15:26.348Z,26.48
2022-09-13T00:18:29.373Z,26.45
2022-09-13T00:21:32.481Z,26.01
2022-09-13T00:24:37.045Z,26.10
2022-09-13T00:27:40.240Z,26.05
2022-09-13T00:30:43.241Z,25.98
2022-09-13T00:33:46.359Z,25.66
2022-09-13T00:36:52.508Z,25.58
2022-09-13T00:39:55.684Z,25.49
2022-09-13T00:43:01.840Z,25.06
2022-09-13T00:46:05.564Z,24.94
2022-09-13T00:49:26.182Z,25.02
2022-09-13T00:52:30.433Z,24.87
2022-09-13T00:55:40.130Z,24.66
2022-09-13T00:58:59.907Z,24.97
2022-09-13T01:02:03.856Z,24.74
2022-09-13T01:05:07.231Z,24.74
2022-09-13T01:08:10.966Z,24.80
2022-09-13T01:11:48.508Z,24.57
2022-09-13T01:14:52.554Z,24.58
2022-09-13T01:17:55.803Z,23.70
2022-09-13T01:21:16.936Z,23.91
2022-09-13T01:24:31.890Z,24.29
2022-09-13T01:27:58.281Z,24.11
2022-09-13T01:31:28.553Z,24.16
2022-09-13T01:34:50.319Z,24.23
2022-09-13T01:38:14.625Z,23.96
2022-09-13T01:41:35.700Z,23.76
2022-09-13T01:44:50.025Z,23.77
2022-09-13T01:48:03.453Z,23.69
2022-09-13T01:51:26.926Z,23.68
2022-09-13T01:54:39.132Z,23.93
2022-09-13T01:57:47.645Z,24.28
2022-09-13T02:01:19.372Z,24.22
2022-09-13T02:04:29.060Z,23.90
2022-09-13T02:07:38.682Z,23.96
2022-09-13T02:10:56.488Z,24.26
2022-09-13T02:14:08.872Z,24.22
2022-09-13T02:17:16.920Z,24.09
2022-09-13T02:20:33.452Z,24.37
2022-09-13T02:23:48.363Z,24.23
2022-09-13T02:26:53.096Z,24.23
2022-09-13T02:30:03.580Z,24.29
2022-09-13T02:33:13.675Z,24.42
2022-09-13T02:36:27.301Z,24.26
2022-09-13T02:39:33.326Z,24.24
2022-09-13T02:42:42.080Z,23.99
2022-09-13T02:45:53.847Z,23.68
2022-09-13T02:49:32.298Z,23.28
2022-09-13T02:52:59.922Z,23.04
2022-09-13T02:56:22.879Z,23.13
2022-09-13T02:59:26.064Z,23.45
2022-09-13T03:02:33.130Z,23.53
2022-09-13T03:05:36.308Z,23.59
2022-09-13T03:08:39.681Z,23.37
2022-09-13T03:12:03.741Z,23.07
2022-09-13T03:15:37.045Z,23.18
2022-09-13T03:18:51.881Z,23.16
2022-09-13T03:22:34.694Z,22.72
2022-09-13T03:26:01.866Z,22.92
2022-09-13T03:29:35.127Z,22.59
2022-09-13T03:32:51.986Z,22.82
2022-09-13T03:36:20.856Z,22.92
2022-09-13T03:39:43.797Z,23.05
2022-09-13T03:42:58.585Z,23.11
2022-09-13T03:46:05.357Z,22.93
2022-09-13T03:49:17.366Z,22.55
2022-09-13T03:52:20.648Z,22.23
2022-09-13T03:55:24.103Z,22.55
2022-09-13T03:58:27.610Z,22.77
2022-09-13T04:01:30.705Z,22.98
2022-09-13T04:04:34.068Z,22.78
2022-09-13T04:07:37.202Z,23.08
2022-09-13T04:10:40.449Z,22.89
2022-09-13T04:13:43.594Z,22.77
2022-09-13T04:16:46.830Z,22.70
2022-09-13T04:19:50.043Z,22.98
2022-09-13T04:22:54.220Z,22.91
2022-09-13T04:26:02.371Z,22.80
2022-09-13T04:29:06.971Z,22.95
2022-09-13T04:32:10.308Z,23.01
2022-09-13T04:35:14.274Z,22.88
2022-09-13T04:38:17.315Z,22.61
2022-09-13T04:41:20.361Z,22.09
2022-09-13T04:44:23.611Z,22.08
2022-09-13T04:47:26.622Z,22.32
2022-09-13T04:50:29.726Z,22.44
2022-09-13T04:53:33.261Z,22.34
2022-09-13T04:56:36.596Z,22.42
2022-09-13T04:59:39.610Z,22.48
2022-09-13T05:02:42.708Z,22.23
2022-09-13T05:05:45.743Z,22.25
2022-09-13T05:08:53.937Z,22.15
2022-09-13T05:11:56.975Z,22.21
2022-09-13T05:14:59.991Z,22.26
2022-09-13T05:18:04.518Z,22.40
2022-09-13T05:21:07.687Z,22.17
2022-09-13T05:24:13.800Z,22.36
2022-09-13T05:27:16.835Z,22.50
2022-09-13T05:30:21.836Z,21.71
2022-09-13T05:33:26.095Z,21.59
2022-09-13T05:36:29.404Z,21.71
2022-09-13T05:39:44.002Z,21.60
2022-09-13T05:42:55.610Z,21.82
2022-09-13T05:46:07.156Z,21.64
2022-09-13T05:49:12.078Z,21.62
2022-09-13T05:52:15.164Z,21.58
2022-09-13T05:55:18.189Z,21.72
2022-09-13T05:58:21.199Z,21.20
2022-09-13T06:01:26.492Z,20.81
2022-09-13T06:04:29.733Z,20.81
2022-09-13T06:07:33.703Z,20.58
2022-09-13T06:10:36.761Z,20.67
2022-09-13T06:13:40.778Z,20.42
2022-09-13T06:16:43.843Z,20.59
2022-09-13T06:19:46.850Z,20.48
2022-09-13T06:22:50.292Z,20.19
2022-09-13T06:26:03.814Z,20.35
2022-09-13T06:29:06.883Z,20.24
2022-09-13T06:32:10.301Z,20.38
2022-09-13T06:35:13.391Z,20.47
2022-09-13T06:38:16.407Z,20.45
2022-09-13T06:41:21.830Z,20.20
2022-09-13T06:44:25.062Z,20.08
2022-09-13T06:47:28.099Z,20.49
2022-09-13T06:50:31.105Z,20.23
2022-09-13T06:53:37.732Z,20.13
2022-09-13T06:56:40.766Z,20.32
2022-09-13T06:59:44.556Z,20.52
2022-09-13T07:02:52.354Z,20.55
2022-09-13T07:05:55.373Z,20.24
2022-09-13T07:09:00.124Z,20.43
2022-09-13T07:12:03.433Z,20.07
2022-09-13T07:15:06.837Z,20.48
2022-09-13T07:18:10.380Z,20.37
2022-09-13T07:21:13.389Z,20.70
2022-09-13T07:24:17.690Z,20.71
2022-09-13T07:27:20.821Z,20.74
2022-09-13T07:30:23.890Z,20.41
2022-09-13T07:33:27.024Z,20.47
2022-09-13T07:36:31.928Z,20.02
2022-09-13T07:39:34.933Z,20.06
2022-09-13T07:42:37.956Z,20.11
2022-09-13T07:45:43.603Z,20.09
2022-09-13T07:48:47.667Z,20.22
2022-09-13T07:51:50.668Z,20.22
2022-09-13T07:54:53.779Z,19.82
2022-09-13T07:57:56.754Z,19.90
2022-09-13T08:01:07.996Z,19.94
2022-09-13T08:04:13.790Z,20.09
2022-09-13T08:07:16.823Z,19.91
2022-09-13T08:10:20.043Z,19.87
2022-09-13T08:13:23.234Z,19.96
2022-09-13T08:16:27.542Z,19.77
2022-09-13T08:19:30.575Z,19.55
2022-09-13T08:22:35.748Z,19.63
2022-09-13T08:25:39.634Z,19.65
2022-09-13T08:28:43.505Z,19.67
2022-09-13T08:31:46.743Z,19.84
2022-09-13T08:34:49.892Z,19.38
2022-09-13T08:37:52.868Z,19.47
2022-09-13T08:40:59.155Z,18.97
2022-09-13T08:44:31.139Z,19.13
2022-09-13T08:47:55.472Z,19.14
2022-09-13T08:51:02.193Z,19.23
2022-09-13T08:54:05.736Z,19.02
2022-09-13T08:57:31.552Z,19.08
2022-09-13T09:00:42.652Z,19.59
2022-09-13T09:04:07.680Z,19.27
2022-09-13T09:07:21.109Z,18.73
2022-09-13T09:10:33.889Z,18.73
2022-09-13T09:13:43.640Z,19.08
2022-09-13T09:17:01.126Z,19.38
2022-09-13T09:20:28.410Z,19.41
2022-09-13T09:23:37.138Z,19.44
2022-09-13T09:26:42.795Z,19.33
2022-09-13T09:29:55.013Z,18.45
2022-09-13T09:33:11.720Z,18.61
2022-09-13T09:36:17.824Z,18.36
2022-09-13T09:39:20.840Z,18.43
2022-09-13T09:42:26.241Z,18.58
2022-09-13T09:45:32.230Z,18.29
2022-09-13T09:48:46.890Z,18.31
2022-09-13T09:51:51.075Z,18.13
2022-09-13T09:54:54.191Z,18.19
2022-09-13T09:57:59.555Z,18.32
2022-09-13T10:01:02.649Z,18.57
2022-09-13T10:04:11.899Z,18.35
2022-09-13T10:07:33.952Z,18.24
2022-09-13T10:10:43.253Z,18.47
2022-09-13T10:14:03.192Z,18.92
2022-09-13T10:17:30.519Z,18.90
2022-09-13T10:20:34.677Z,18.19
2022-09-13T10:23:38.133Z,18.43
2022-09-13T10:26:41.349Z,18.56
2022-09-13T10:29:49.659Z,18.69
2022-09-13T10:32:56.917Z,18.70
2022-09-13T10:36:09.364Z,18.80
2022-09-13T10:39:19.447Z,18.64
2022-09-13T10:42:24.745Z,18.53
2022-09-13T10:45:30.483Z,18.43
2022-09-13T10:48:47.419Z,18.29
2022-09-13T10:51:50.554Z,18.40
2022-09-13T10:54:54.729Z,18.55
2022-09-13T10:58:04.597Z,18.43
2022-09-13T11:01:28.572Z,18.51
2022-09-13T11:05:22.069Z,18.42
2022-09-13T11:08:34.023Z,18.36
2022-09-13T11:11:52.034Z,18.21
2022-09-13T11:15:01.488Z,18.12
2022-09-13T11:18:18.014Z,18.29
2022-09-13T11:21:39.133Z,18.20
2022-09-13T11:25:00.302Z,17.82
2022-09-13T11:28:18.306Z,18.24
2022-09-13T11:31:39.660Z,18.18
2022-09-13T11:34:54.813Z,18.15
2022-09-13T11:38:04.051Z,18.16
2022-09-13T11:41:13.112Z,18.07
2022-09-13T11:44:37.251Z,17.77
2022-09-13T11:47:55.597Z,17.64
2022-09-13T11:51:06.326Z,17.35
2022-09-13T11:54:53.492Z,17.93
2022-09-13T11:58:02.900Z,18.01
2022-09-13T12:01:09.411Z,18.02
2022-09-13T12:05:20.932Z,17.93
2022-09-13T12:08:24.571Z,17.68
2022-09-13T12:11:36.257Z,17.92
2022-09-13T12:15:06.573Z,17.88
2022-09-13T12:18:29.253Z,18.12
2022-09-13T12:21:42.221Z,18.12
2022-09-13T12:24:49.105Z,18.01
2022-09-13T12:28:22.247Z,18.19
2022-09-13T12:31:28.556Z,18.01
2022-09-13T12:34:43.718Z,18.10
2022-09-13T12:38:14.127Z,17.91
2022-09-13T12:41:27.318Z,18.13
2022-09-13T12:45:24.474Z,18.32
2022-09-13T12:48:53.643Z,18.40
2022-09-13T12:52:11.950Z,18.13
2022-09-13T12:55:46.128Z,18.34
2022-09-13T12:58:56.456Z,18.58
2022-09-13T13:01:59.645Z,19.00
2022-09-13T13:05:30.853Z,19.52
2022-09-13T13:08:36.779Z,19.69
2022-09-13T13:11:46.771Z,20.23
2022-09-13T13:14:50.217Z,20.19
2022-09-13T13:17:55.160Z,20.32
2022-09-13T13:20:58.121Z,20.66
2022-09-13T13:24:16.456Z,21.04
2022-09-13T13:27:38.281Z,21.05
2022-09-13T13:30:43.943Z,21.42
2022-09-13T13:33:49.706Z,21.39
2022-09-13T13:36:59.595Z,21.38
2022-09-13T13:40:22.651Z,21.63
2022-09-13T13:43:34.027Z,21.94
2022-09-13T13:46:37.164Z,22.22
2022-09-13T13:49:40.199Z,22.26
2022-09-13T13:52:50.081Z,22.50
2022-09-13T13:56:09.624Z,22.68
2022-09-13T13:59:18.669Z,22.88
2022-09-13T14:02:28.775Z,23.22
2022-09-13T14:05:52.898Z,23.57
2022-09-13T14:09:37.466Z,23.73
2022-09-13T14:13:04.857Z,23.27
2022-09-13T14:16:14.881Z,22.98
2022-09-13T14:19:38.366Z,23.52
2022-09-13T14:22:41.543Z,24.21
2022-09-13T14:25:44.840Z,23.99
2022-09-13T14:28:48.944Z,24.19
2022-09-13T14:31:53.742Z,23.83
2022-09-13T14:35:03.214Z,24.45
2022-09-13T14:38:19.448Z,23.76
2022-09-13T14:41:30.203Z,24.70
2022-09-13T14:44:33.407Z,25.02
2022-09-13T14:47:53.392Z,24.76
2022-09-13T14:51:02.130Z,25.22
2022-09-13T14:54:16.883Z,25.85
2022-09-13T14:57:35.604Z,25.76
2022-09-13T15:01:11.771Z,25.74
2022-09-13T15:04:18.659Z,25.81
2022-09-13T15:07:40.992Z,26.10
2022-09-13T15:10:44.959Z,25.93
2022-09-13T15:13:48.131Z,25.69
2022-09-13T15:17:08.170Z,26.44
2022-09-13T15:20:13.495Z,26.26
2022-09-13T15:23:28.754Z,25.88
2022-09-13T15:26:32.719Z,26.72
2022-09-13T15:29:36.060Z,26.22
2022-09-13T15:32:44.268Z,26.74
2022-09-13T15:35:48.662Z,26.96
2022-09-13T15:39:12.716Z,26.43
2022-09-13T15:42:16.947Z,27.35
2022-09-13T15:45:21.637Z,27.64
2022-09-13T15:48:33.329Z,27.52
2022-09-13T15:51:39.270Z,27.95
2022-09-13T15:54:43.381Z,28.18
2022-09-13T15:57:46.443Z,27.44
2022-09-13T16:00:52.124Z,27.92
2022-09-13T16:03:55.168Z,28.01
2022-09-13T16:06:58.162Z,28.70
2022-09-13T16:10:01.348Z,28.72
2022-09-13T16:13:04.929Z,28.24
2022-09-13T16:16:08.044Z,28.51
2022-09-13T16:19:19.761Z,28.50
2022-09-13T16:22:25.938Z,29.35
2022-09-13T16:25:29.018Z,29.54
2022-09-13T16:28:32.307Z,29.83
2022-09-13T16:31:35.561Z,29.62
2022-09-13T16:34:38.658Z,30.00
2022-09-13T16:37:42.085Z,29.94
2022-09-13T16:40:45.304Z,29.72
2022-09-13T16:43:49.284Z,29.56
2022-09-13T16:46:52.444Z,29.49
2022-09-13T16:49:55.526Z,28.09
2022-09-13T16:52:58.596Z,28.42
2022-09-13T16:56:09.465Z,28.96
2022-09-13T16:59:12.784Z,28.93
2022-09-13T17:02:16.005Z,29.09
2022-09-13T17:05:19.273Z,29.45
2022-09-13T17:08:22.277Z,28.23
2022-09-13T17:11:27.486Z,28.54
2022-09-13T17:14:30.549Z,30.54
2022-09-13T17:17:33.648Z,30.31
2022-09-13T17:20:36.915Z,30.53
2022-09-13T17:23:39.945Z,30.24
2022-09-13T17:26:43.872Z,29.46
2022-09-13T17:29:48.027Z,30.54
2022-09-13T17:32:51.027Z,30.39
2022-09-13T17:36:05.820Z,30.80
2022-09-13T17:39:10.118Z,30.57
2022-09-13T17:42:13.310Z,30.16
2022-09-13T17:45:17.613Z,30.56
2022-09-13T17:48:20.722Z,31.29
2022-09-13T17:51:26.173Z,30.67
2022-09-13T17:54:29.303Z,31.28
2022-09-13T17:57:33.866Z,31.08
2022-09-13T18:00:36.871Z,30.31
2022-09-13T18:03:40.035Z,29.86
2022-09-13T18:06:43.112Z,30.44
2022-09-13T18:09:46.471Z,30.03
2022-09-13T18:12:49.611Z,30.65
2022-09-13T18:16:23.168Z,29.75
2022-09-13T18:19:44.974Z,30.24
2022-09-13T18:22:49.267Z,30.49
2022-09-13T18:26:02.292Z,30.27
2022-09-13T18:29:10.628Z,30.32
2022-09-13T18:32:13.809Z,29.94
2022-09-13T18:35:16.925Z,29.74
2022-09-13T18:38:20.187Z,29.34
2022-09-13T18:41:25.440Z,29.51
2022-09-13T18:44:28.677Z,29.94
2022-09-13T18:47:32.252Z,30.12
2022-09-13T18:50:35.306Z,29.59
2022-09-13T18:53:38.672Z,29.49
2022-09-13T18:56:41.732Z,29.84
2022-09-13T18:59:44.806Z,29.34
2022-09-13T19:03:10.867Z,29.74
2022-09-13T19:06:21.061Z,29.25
2022-09-13T19:09:24.708Z,29.66
2022-09-13T19:12:27.717Z,29.91
2022-09-13T19:15:31.349Z,29.89
2022-09-13T19:18:36.171Z,29.46
2022-09-13T19:21:39.496Z,29.63
2022-09-13T19:24:42.526Z,29.41
2022-09-13T19:27:45.564Z,29.37
2022-09-13T19:30:48.654Z,28.68
2022-09-13T19:33:54.733Z,29.15
2022-09-13T19:36:58.308Z,29.19
2022-09-13T19:40:01.846Z,29.37
2022-09-13T19:43:05.032Z,30.11
2022-09-13T19:46:11.155Z,30.25
2022-09-13T19:49:16.262Z,29.86
2022-09-13T19:52:19.409Z,29.25
2022-09-13T19:55:23.513Z,29.37
2022-09-13T19:58:26.637Z,29.91
2022-09-13T20:01:36.142Z,29.58
2022-09-13T20:04:39.328Z,29.58
2022-09-13T20:07:46.111Z,29.72
2022-09-13T20:10:49.215Z,29.87
2022-09-13T20:13:52.493Z,30.03
2022-09-13T20:16:55.669Z,30.05
2022-09-13T20:20:00.764Z,29.66
2022-09-13T20:23:03.826Z,29.11
2022-09-13T20:26:18.372Z,28.68
2022-09-13T20:29:21.458Z,29.10
2022-09-13T20:32:24.644Z,29.35
2022-09-13T20:35:27.683Z,29.43
2022-09-13T20:38:30.677Z,29.54
2022-09-13T20:41:33.761Z,29.80
2022-09-13T20:44:36.814Z,29.82
2022-09-13T20:47:39.894Z,29.53
2022-09-13T20:50:43.030Z,29.77
2022-09-13T20:53:46.102Z,29.70
2022-09-13T20:56:49.270Z,29.38
2022-09-13T20:59:52.341Z,29.67
2022-09-13T21:02:55.434Z,29.20
2022-09-13T21:06:03.520Z,29.74
2022-09-13T21:09:06.856Z,29.82
2022-09-13T21:12:10.084Z,30.08
2022-09-13T21:15:13.164Z,30.18
2022-09-13T21:18:17.060Z,30.08
2022-09-13T21:21:25.954Z,30.22
2022-09-13T21:24:29.450Z,29.58
2022-09-13T21:27:32.482Z,30.03
2022-09-13T21:30:35.646Z,29.80
2022-09-13T21:33:39.037Z,29.88
2022-09-13T21:36:44.621Z,29.84
2022-09-13T21:39:47.818Z,29.54
2022-09-13T21:42:51.048Z,29.70
2022-09-13T21:46:07.983Z,29.77
2022-09-13T21:49:14.364Z,29.61
2022-09-13T21:52:17.479Z,29.23
2022-09-13T21:55:20.533Z,28.96
2022-09-13T21:58:23.570Z,29.01
2022-09-13T22:01:29.257Z,29.44
2022-09-13T22:04:32.366Z,29.23
2022-09-13T22:07:37.580Z,29.13
2022-09-13T22:10:40.626Z,29.49
2022-09-13T22:13:46.704Z,28.85
2022-09-13T22:16:50.683Z,28.68
2022-09-13T22:19:53.897Z,29.02
2022-09-13T22:22:56.885Z,29.12
2022-09-13T22:26:00.125Z,29.25
2022-09-13T22:29:03.916Z,29.40
2022-09-13T22:32:07.095Z,29.33
2022-09-13T22:35:10.207Z,28.79
2022-09-13T22:38:13.553Z,29.07
2022-09-13T22:41:21.695Z,28.99
2022-09-13T22:44:24.808Z,28.94
2022-09-13T22:47:28.525Z,28.62
2022-09-13T22:50:32.001Z,28.61
2022-09-13T22:53:36.832Z,28.84
2022-09-13T22:56:40.273Z,28.48
2022-09-13T22:59:43.375Z,28.59
2022-09-13T23:02:47.225Z,28.18
2022-09-13T23:05:51.267Z,28.18
2022-09-13T23:08:56.368Z,28.29
2022-09-13T23:11:59.382Z,28.04
2022-09-13T23:15:05.081Z,28.36
2022-09-13T23:18:08.108Z,27.74
2022-09-13T23:21:11.745Z,27.76
2022-09-13T23:24:16.786Z,27.61
2022-09-13T23:27:19.930Z,27.49
2022-09-13T23:30:23.681Z,27.47
2022-09-13T23:33:26.741Z,27.58
2022-09-13T23:36:32.681Z,27.29
2022-09-13T23:39:37.815Z,26.64
2022-09-13T23:42:41.016Z,26.81
2022-09-13T23:45:44.342Z,26.99
2022-09-13T23:48:47.479Z,27.07
2022-09-13T23:51:50.633Z,26.69
2022-09-13T23:54:53.661Z,26.62
2022-09-13T23:57:56.712Z,26.61
